Time;durP1;ratioP1;P1;durP2;ratioP2;P2;SDS_P1;SDS_P2;PMS_P1;PMS_P2;Temp;Humidity;BMP_temperature;BMP_pressure;BME280_temperature;BME280_humidity;BME280_pressure;Samples;Min_cycle;Max_cycle;Signal;HPM_P1;HPM_P2
2022/07/31 00:01:15;;;;;;;10.43;6.82;;;24.50;77.40;;;;;;6155391;28;80511;-67
2022/07/31 00:04:15;;;;;;;10.35;6.32;;;24.60;77.10;;;;;;6159074;28;80611;-67
2022/07/31 00:07:16;;;;;;;9.30;6.20;;;24.60;76.70;;;;;;6163873;28;80420;-66
2022/07/31 00:10:16;;;;;;;11.18;5.85;;;24.70;76.70;;;;;;6148966;28;80816;-66
2022/07/31 00:13:17;;;;;;;10.15;6.78;;;24.70;76.40;;;;;;6152623;28;81428;-68
2022/07/31 00:16:17;;;;;;;9.30;6.57;;;24.80;76.10;;;;;;6153496;28;80302;-68
2022/07/31 00:19:18;;;;;;;8.05;5.95;;;24.80;75.80;;;;;;6146063;28;80428;-67
2022/07/31 00:22:18;;;;;;;13.45;6.13;;;24.90;75.50;;;;;;6155053;28;82437;-67
2022/07/31 00:25:19;;;;;;;7.93;5.57;;;24.90;75.30;;;;;;6161070;28;80543;-68
2022/07/31 00:28:19;;;;;;;9.48;5.40;;;24.90;75.20;;;;;;6166812;28;81226;-67
2022/07/31 00:31:20;;;;;;;8.30;5.30;;;24.90;74.90;;;;;;6165597;28;83248;-67
2022/07/31 00:34:20;;;;;;;6.65;4.75;;;24.90;74.70;;;;;;6152804;28;80966;-67
2022/07/31 00:37:21;;;;;;;7.15;4.28;;;24.90;74.70;;;;;;6164307;28;80850;-66
2022/07/31 00:40:21;;;;;;;10.07;4.80;;;25.00;74.60;;;;;;6166234;28;81765;-68
2022/07/31 00:43:22;;;;;;;4.82;4.05;;;25.00;74.50;;;;;;6163642;28;80664;-67
2022/07/31 00:46:22;;;;;;;6.63;4.65;;;25.00;74.30;;;;;;6154743;28;80541;-67
2022/07/31 00:49:23;;;;;;;4.95;3.83;;;25.00;74.20;;;;;;6162845;28;82872;-67
2022/07/31 00:52:24;;;;;;;8.52;4.40;;;25.10;74.20;;;;;;6169159;28;83316;-67
2022/07/31 00:55:25;;;;;;;5.68;3.85;;;25.10;74.00;;;;;;6163472;28;82948;-67
2022/07/31 00:58:25;;;;;;;9.77;4.13;;;25.10;74.00;;;;;;6149115;28;80446;-67
2022/07/31 01:01:26;;;;;;;11.20;3.55;;;25.10;73.90;;;;;;6162752;28;81899;-68
2022/07/31 01:04:27;;;;;;;5.80;3.25;;;25.00;73.70;;;;;;6157854;28;80569;-68
2022/07/31 01:07:27;;;;;;;6.65;3.10;;;25.10;73.70;;;;;;6158053;28;80470;-66
2022/07/31 01:10:28;;;;;;;4.45;3.42;;;25.10;73.60;;;;;;6151189;28;80585;-67
2022/07/31 01:13:28;;;;;;;4.63;3.30;;;25.10;73.50;;;;;;6157869;28;80329;-65
2022/07/31 01:16:29;;;;;;;7.22;3.22;;;25.10;73.50;;;;;;6150915;28;86472;-67
2022/07/31 01:19:29;;;;;;;4.20;3.35;;;25.10;73.30;;;;;;6154090;28;80478;-67
2022/07/31 01:22:30;;;;;;;5.60;3.20;;;25.10;73.30;;;;;;6140541;28;83171;-67
2022/07/31 01:25:30;;;;;;;4.15;2.78;;;25.10;73.10;;;;;;6143473;28;80887;-67
2022/07/31 01:28:39;;;;;;;6.82;2.35;;;25.10;72.90;;;;;;6152152;28;87710;-67
2022/07/31 01:31:39;;;;;;;3.88;3.10;;;25.10;72.90;;;;;;6150810;28;80341;-67
2022/07/31 01:34:40;;;;;;;7.28;2.70;;;25.10;72.70;;;;;;6145721;28;83686;-67
2022/07/31 01:37:42;;;;;;;3.40;2.80;;;25.10;72.70;;;;;;6148764;28;83121;-66
2022/07/31 01:40:43;;;;;;;3.75;2.05;;;25.10;72.60;;;;;;6156082;28;83538;-67
2022/07/31 01:43:43;;;;;;;3.03;2.42;;;25.10;72.60;;;;;;6145159;28;80649;-67
2022/07/31 01:46:44;;;;;;;4.03;2.25;;;25.20;72.50;;;;;;6149426;28;83156;-67
2022/07/31 01:49:45;;;;;;;2.40;2.20;;;25.20;72.40;;;;;;6148843;28;83576;-67
2022/07/31 01:52:46;;;;;;;4.70;2.33;;;25.10;72.30;;;;;;6156465;28;82574;-67
2022/07/31 01:55:47;;;;;;;2.70;2.05;;;25.10;72.20;;;;;;6147183;28;80611;-67
2022/07/31 01:58:47;;;;;;;1.90;1.60;;;25.20;72.20;;;;;;6154879;28;82334;-67
2022/07/31 02:01:59;;;;;;;2.70;1.92;;;25.20;72.00;;;;;;6153780;28;81870;-66
2022/07/31 02:05:02;;;;;;;4.68;1.80;;;25.10;71.90;;;;;;6158579;28;81862;-67
2022/07/31 02:08:02;;;;;;;2.50;2.10;;;25.10;71.90;;;;;;6154976;28;81580;-67
2022/07/31 02:11:03;;;;;;;6.70;2.65;;;25.10;71.90;;;;;;6152005;28;82817;-68
2022/07/31 02:14:06;;;;;;;2.90;1.77;;;25.10;71.90;;;;;;6153663;28;83471;-67
2022/07/31 02:17:08;;;;;;;2.95;1.80;;;25.10;71.80;;;;;;6142449;28;82620;-68
2022/07/31 02:20:29;;;;;;;4.32;1.85;;;25.10;71.80;;;;;;6160593;28;81244;-70
2022/07/31 02:23:30;;;;;;;1.95;1.65;;;25.10;71.80;;;;;;6122537;28;82009;-68
2022/07/31 02:26:31;;;;;;;1.50;1.40;;;25.10;71.80;;;;;;6134313;28;80537;-68
2022/07/31 02:29:31;;;;;;;2.15;1.48;;;25.10;71.60;;;;;;6145918;28;83497;-68
2022/07/31 02:32:32;;;;;;;2.22;1.52;;;25.10;71.50;;;;;;6155079;28;80413;-68
2022/07/31 02:35:32;;;;;;;2.22;1.58;;;25.10;71.70;;;;;;6170814;28;81748;-68
2022/07/31 02:38:33;;;;;;;3.17;1.70;;;25.10;71.50;;;;;;6158516;28;82826;-66
2022/07/31 02:41:33;;;;;;;1.95;1.67;;;25.10;71.60;;;;;;6152433;28;83267;-67
2022/07/31 02:44:34;;;;;;;4.82;1.75;;;25.10;71.60;;;;;;6158571;28;83213;-68
2022/07/31 02:47:35;;;;;;;1.45;1.35;;;25.10;71.50;;;;;;6155769;28;82693;-67
2022/07/31 02:50:36;;;;;;;4.53;1.20;;;25.10;71.50;;;;;;6141352;28;80868;-67
2022/07/31 02:53:37;;;;;;;1.98;1.40;;;25.10;71.50;;;;;;6153006;28;80278;-68
2022/07/31 02:56:38;;;;;;;2.60;1.40;;;25.10;71.50;;;;;;6119525;28;81166;-68
2022/07/31 02:59:38;;;;;;;2.08;1.15;;;25.10;71.50;;;;;;6143762;28;80509;-69
2022/07/31 03:02:41;;;;;;;1.20;1.10;;;25.10;71.40;;;;;;6158707;28;83638;-69
2022/07/31 03:05:41;;;;;;;1.55;1.10;;;25.10;71.50;;;;;;6151774;28;80452;-68
2022/07/31 03:08:43;;;;;;;1.35;1.10;;;25.10;71.50;;;;;;6147011;28;83880;-68
2022/07/31 03:11:44;;;;;;;1.35;1.25;;;25.10;71.50;;;;;;6141828;28;83086;-68
2022/07/31 03:14:44;;;;;;;3.83;1.45;;;25.10;72.20;;;;;;6143072;28;81659;-67
2022/07/31 03:17:45;;;;;;;1.55;1.30;;;25.10;71.50;;;;;;6156952;28;81682;-71
2022/07/31 03:20:50;;;;;;;1.75;1.00;;;25.10;71.50;;;;;;6132351;28;81366;-71
2022/07/31 03:23:51;;;;;;;2.17;1.30;;;25.10;71.60;;;;;;6149682;28;83081;-72
2022/07/31 03:26:55;;;;;;;3.92;1.52;;;25.10;71.70;;;;;;6158272;28;80581;-68
2022/07/31 03:29:56;;;;;;;1.10;1.00;;;25.00;71.60;;;;;;6147034;28;83157;-69
2022/07/31 03:32:56;;;;;;;1.15;1.05;;;25.00;71.60;;;;;;6151096;28;80218;-68
2022/07/31 03:35:57;;;;;;;1.83;1.17;;;25.10;71.70;;;;;;6149725;28;83074;-67
2022/07/31 03:38:58;;;;;;;3.33;1.13;;;25.00;71.70;;;;;;6149535;28;83098;-67
2022/07/31 03:42:06;;;;;;;1.23;1.13;;;25.10;71.90;;;;;;6147458;28;83203;-67
2022/07/31 03:45:06;;;;;;;1.10;1.10;;;25.10;71.80;;;;;;6156345;28;82154;-67
2022/07/31 03:48:10;;;;;;;2.08;1.20;;;25.10;71.70;;;;;;6142350;28;83342;-67
2022/07/31 03:51:12;;;;;;;1.15;1.10;;;25.10;72.10;;;;;;6148533;28;80360;-67
2022/07/31 03:54:12;;;;;;;2.38;1.10;;;25.10;72.10;;;;;;6150127;28;83283;-67
2022/07/31 03:57:16;;;;;;;4.15;1.08;;;25.10;72.20;;;;;;6149298;28;80665;-67
2022/07/31 04:00:19;;;;;;;1.20;1.00;;;25.10;72.10;;;;;;6140343;28;81577;-68
2022/07/31 04:03:20;;;;;;;1.10;1.00;;;25.10;72.20;;;;;;6143916;28;87212;-67
2022/07/31 04:06:27;;;;;;;2.63;1.00;;;25.10;72.00;;;;;;6151478;28;80282;-67
2022/07/31 04:09:28;;;;;;;1.65;1.00;;;25.10;72.10;;;;;;6150711;28;83127;-68
2022/07/31 04:12:29;;;;;;;0.88;0.88;;;25.10;72.10;;;;;;6142078;28;82438;-69
2022/07/31 04:15:29;;;;;;;3.78;1.10;;;25.10;71.90;;;;;;6141048;28;81637;-67
2022/07/31 04:18:30;;;;;;;6.13;0.95;;;25.10;72.00;;;;;;6151511;28;86694;-67
2022/07/31 04:21:30;;;;;;;1.20;0.90;;;25.10;72.00;;;;;;6151915;28;80567;-68
2022/07/31 04:24:31;;;;;;;0.70;0.70;;;25.10;72.30;;;;;;6154413;28;83216;-68
2022/07/31 04:27:37;;;;;;;1.60;0.90;;;25.20;72.00;;;;;;6138796;28;80402;-68
2022/07/31 04:30:39;;;;;;;1.23;0.93;;;25.20;72.00;;;;;;6146138;28;82196;-68
2022/07/31 04:33:39;;;;;;;1.23;0.90;;;25.20;72.00;;;;;;6153539;28;82665;-69
2022/07/31 04:36:40;;;;;;;3.25;0.95;;;25.20;72.00;;;;;;6143565;28;83304;-69
2022/07/31 04:39:41;;;;;;;1.77;0.70;;;25.20;72.00;;;;;;6153517;28;82641;-69
2022/07/31 04:42:41;;;;;;;4.35;0.80;;;25.20;71.90;;;;;;6152970;28;83361;-68
2022/07/31 04:45:42;;;;;;;1.52;0.90;;;25.30;72.10;;;;;;6148012;28;80523;-68
2022/07/31 04:48:42;;;;;;;2.70;1.00;;;25.20;71.90;;;;;;6160908;28;82051;-67
2022/07/31 04:51:43;;;;;;;0.70;0.70;;;25.20;71.70;;;;;;6158003;28;83087;-67
2022/07/31 04:54:43;;;;;;;1.88;0.73;;;25.30;71.90;;;;;;6153905;28;83072;-69
2022/07/31 04:57:45;;;;;;;3.15;0.80;;;25.30;72.10;;;;;;6157505;28;83894;-68
2022/07/31 05:00:46;;;;;;;1.50;0.85;;;25.30;72.00;;;;;;6150291;28;83003;-65
2022/07/31 05:03:52;;;;;;;2.75;1.23;;;25.30;72.30;;;;;;6158164;28;86405;-68
2022/07/31 05:06:52;;;;;;;6.72;0.90;;;25.30;72.30;;;;;;6157585;28;82870;-68
2022/07/31 05:09:53;;;;;;;3.28;1.15;;;25.40;72.20;;;;;;6141157;28;80231;-68
2022/07/31 05:12:53;;;;;;;1.40;0.90;;;25.40;72.10;;;;;;6145783;28;83138;-68
2022/07/31 05:15:54;;;;;;;3.13;1.08;;;25.40;72.10;;;;;;6151956;28;81804;-68
2022/07/31 05:18:55;;;;;;;2.50;1.02;;;25.40;71.90;;;;;;6151540;28;80405;-66
2022/07/31 05:22:14;;;;;;;1.83;0.98;;;25.40;71.80;;;;;;6147267;28;80337;-66
2022/07/31 05:25:34;;;;;;;0.95;0.80;;;25.40;72.50;;;;;;6145049;28;81431;-66
2022/07/31 05:28:35;;;;;;;4.15;1.10;;;25.40;72.50;;;;;;6150840;28;81535;-67
2022/07/31 05:31:35;;;;;;;0.80;0.73;;;25.50;72.30;;;;;;6160178;28;81797;-69
2022/07/31 05:34:36;;;;;;;1.63;1.20;;;25.50;72.50;;;;;;6147360;28;81631;-69
2022/07/31 05:37:36;;;;;;;1.92;0.82;;;25.50;72.80;;;;;;6157667;28;81722;-69
2022/07/31 05:40:39;;;;;;;7.65;0.90;;;25.50;73.10;;;;;;6147401;28;83052;-68
2022/07/31 05:44:00;;;;;;;5.72;1.17;;;25.50;73.00;;;;;;6143753;28;80527;-67
2022/07/31 05:47:09;;;;;;;2.08;1.10;;;25.50;72.70;;;;;;6151201;28;83516;-67
2022/07/31 05:50:11;;;;;;;2.28;0.90;;;25.50;72.80;;;;;;6152587;28;82466;-65
2022/07/31 05:53:14;;;;;;;1.88;0.93;;;25.50;71.80;;;;;;6153492;28;82254;-66
2022/07/31 05:56:33;;;;;;;1.10;1.00;;;25.40;71.40;;;;;;6158364;28;80446;-66
2022/07/31 05:59:34;;;;;;;1.10;1.00;;;25.30;71.40;;;;;;6154578;28;82341;-66
2022/07/31 06:02:35;;;;;;;11.07;1.27;;;25.30;71.10;;;;;;6114267;28;83132;-66
2022/07/31 06:06:00;;;;;;;9.65;1.20;;;25.10;71.20;;;;;;6151968;28;81623;-66
2022/07/31 06:09:00;;;;;;;3.75;1.10;;;25.20;71.20;;;;;;6159022;28;80728;-66
2022/07/31 06:12:01;;;;;;;4.40;1.75;;;25.00;71.10;;;;;;6148105;28;83201;-65
2022/07/31 06:15:02;;;;;;;3.47;1.65;;;25.00;71.10;;;;;;6149516;28;82898;-66
2022/07/31 06:18:23;;;;;;;3.38;1.30;;;25.00;71.10;;;;;;6155424;28;82809;-65
2022/07/31 06:21:24;;;;;;;2.53;1.25;;;25.00;70.80;;;;;;6144001;28;81726;-65
2022/07/31 06:24:24;;;;;;;1.73;1.02;;;25.00;70.90;;;;;;6147320;28;83368;-65
2022/07/31 06:27:25;;;;;;;2.13;1.10;;;25.00;70.70;;;;;;6153497;28;82742;-66
2022/07/31 06:30:26;;;;;;;2.90;1.15;;;24.90;70.60;;;;;;6150392;28;83183;-66
2022/07/31 06:33:27;;;;;;;1.15;1.02;;;24.80;70.50;;;;;;6105477;28;83167;-71
2022/07/31 06:36:27;;;;;;;1.95;0.70;;;24.80;70.50;;;;;;6146969;28;82052;-73
2022/07/31 06:39:31;;;;;;;2.20;0.90;;;24.80;70.40;;;;;;6149370;28;83749;-65
2022/07/31 06:42:51;;;;;;;0.95;0.90;;;24.60;70.60;;;;;;6151705;28;85108;-69
2022/07/31 06:46:14;;;;;;;1.45;0.90;;;24.40;71.50;;;;;;6152299;28;81216;-67
2022/07/31 06:49:50;;;;;;;1.40;0.82;;;24.40;71.70;;;;;;6129636;28;80773;-65
2022/07/31 06:52:50;;;;;;;0.95;0.90;;;24.40;71.80;;;;;;6134011;28;83681;-66
2022/07/31 06:55:51;;;;;;;1.52;0.93;;;24.40;71.50;;;;;;6138217;28;83642;-66
2022/07/31 06:58:52;;;;;;;1.90;1.08;;;24.40;71.60;;;;;;6155533;28;83461;-65
2022/07/31 07:01:52;;;;;;;1.02;0.82;;;24.30;71.90;;;;;;6143960;28;82686;-65
2022/07/31 07:04:53;;;;;;;3.35;0.80;;;24.20;72.10;;;;;;6145720;28;83147;-64
2022/07/31 07:07:53;;;;;;;0.63;0.63;;;24.30;72.50;;;;;;6125547;28;83509;-64
2022/07/31 07:10:54;;;;;;;8.05;4.20;;;24.30;72.90;;;;;;6137228;28;83454;-64
2022/07/31 07:14:00;;;;;;;5.00;2.10;;;24.20;72.40;;;;;;6148014;28;83290;-65
2022/07/31 07:17:01;;;;;;;4.15;1.48;;;24.30;72.50;;;;;;6152491;28;82802;-66
2022/07/31 07:20:01;;;;;;;2.40;1.63;;;24.10;73.00;;;;;;6149582;28;83169;-67
2022/07/31 07:23:03;;;;;;;1.98;1.20;;;24.10;73.40;;;;;;6156757;28;82604;-67
2022/07/31 07:26:11;;;;;;;3.03;1.20;;;24.20;73.20;;;;;;6144583;28;81594;-70
2022/07/31 07:29:11;;;;;;;3.90;1.33;;;24.30;72.80;;;;;;6152437;28;80381;-66
2022/07/31 07:32:13;;;;;;;2.65;1.50;;;24.30;73.30;;;;;;6150213;28;82601;-66
2022/07/31 07:35:16;;;;;;;2.70;1.45;;;24.30;73.30;;;;;;6141380;28;83176;-66
2022/07/31 07:38:25;;;;;;;2.50;1.30;;;24.40;72.80;;;;;;6151558;28;81975;-66
2022/07/31 07:41:26;;;;;;;1.55;1.23;;;24.50;72.70;;;;;;6143219;28;83006;-66
2022/07/31 07:44:27;;;;;;;2.45;1.17;;;24.30;72.50;;;;;;6146185;28;83565;-65
2022/07/31 07:47:27;;;;;;;2.50;1.00;;;24.40;72.70;;;;;;6150809;28;83022;-66
2022/07/31 07:50:28;;;;;;;0.98;0.90;;;24.30;72.00;;;;;;6145178;28;83459;-67
2022/07/31 07:53:52;;;;;;;2.40;0.93;;;24.40;72.00;;;;;;6142245;28;81397;-65
2022/07/31 07:57:27;;;;;;;1.50;0.90;;;24.50;72.00;;;;;;6148351;28;81908;-66
2022/07/31 08:00:46;;;;;;;4.72;1.08;;;24.60;71.30;;;;;;6139692;28;80293;-65
2022/07/31 08:03:47;;;;;;;1.73;1.00;;;24.60;71.20;;;;;;6133942;28;82488;-66
2022/07/31 08:06:47;;;;;;;1.23;1.00;;;24.70;70.90;;;;;;6125470;28;82905;-64
2022/07/31 08:09:49;;;;;;;0.80;0.80;;;24.60;70.70;;;;;;6155900;28;82569;-65
2022/07/31 08:13:09;;;;;;;3.40;1.23;;;24.40;70.50;;;;;;6142001;28;83592;-65
2022/07/31 08:16:28;;;;;;;2.17;1.00;;;24.30;70.50;;;;;;6147609;28;80295;-64
2022/07/31 08:19:31;;;;;;;3.78;0.95;;;24.10;71.20;;;;;;6148178;28;81381;-64
2022/07/31 08:22:31;;;;;;;4.57;0.80;;;24.20;71.20;;;;;;6138128;28;83940;-64
2022/07/31 08:25:32;;;;;;;2.00;1.00;;;24.10;71.00;;;;;;6142145;28;82052;-64
2022/07/31 08:28:33;;;;;;;2.25;0.98;;;24.30;70.60;;;;;;6138923;28;81952;-64
2022/07/31 08:31:34;;;;;;;1.38;1.20;;;24.30;70.50;;;;;;6142792;28;82138;-64
2022/07/31 08:34:51;;;;;;;5.78;1.75;;;24.30;70.00;;;;;;6140654;28;82908;-65
2022/07/31 08:37:52;;;;;;;1.20;1.10;;;24.30;70.20;;;;;;6146504;28;83569;-64
2022/07/31 08:40:54;;;;;;;2.10;1.65;;;24.20;70.50;;;;;;6146329;28;81589;-64
2022/07/31 08:43:55;;;;;;;1.48;1.38;;;24.20;70.80;;;;;;6152921;28;83257;-64
2022/07/31 08:46:55;;;;;;;0.90;0.88;;;24.00;70.90;;;;;;6155131;28;81943;-65
2022/07/31 08:49:56;;;;;;;1.40;1.30;;;24.10;70.70;;;;;;6143117;28;82298;-63
2022/07/31 08:52:56;;;;;;;1.70;1.50;;;24.20;70.80;;;;;;6153155;28;83735;-64
2022/07/31 08:56:29;;;;;;;6.88;1.80;;;24.30;70.60;;;;;;6153908;28;82963;-64
2022/07/31 08:59:29;;;;;;;2.75;1.65;;;24.20;70.30;;;;;;6135295;28;82025;-63
2022/07/31 09:02:31;;;;;;;1.98;1.50;;;24.10;70.60;;;;;;6146506;28;83469;-63
2022/07/31 09:05:54;;;;;;;1.30;1.20;;;24.10;70.50;;;;;;6149040;28;80292;-64
2022/07/31 09:08:55;;;;;;;1.70;1.20;;;24.10;70.70;;;;;;6146860;28;81730;-62
2022/07/31 09:11:56;;;;;;;3.35;1.60;;;24.20;70.30;;;;;;6154954;28;83361;-63
2022/07/31 09:15:22;;;;;;;2.58;1.50;;;24.20;70.30;;;;;;6158333;28;81703;-65
2022/07/31 09:18:23;;;;;;;2.50;1.30;;;24.30;69.90;;;;;;6154450;28;80310;-63
2022/07/31 09:21:32;;;;;;;1.65;1.45;;;24.30;69.60;;;;;;6154899;28;81871;-64
2022/07/31 09:24:33;;;;;;;1.77;1.33;;;24.30;70.10;;;;;;6148707;28;83131;-61
2022/07/31 09:27:33;;;;;;;1.50;1.10;;;24.10;70.40;;;;;;6145912;28;83202;-64
2022/07/31 09:30:34;;;;;;;1.55;1.20;;;24.20;70.50;;;;;;6122558;28;82536;-64
2022/07/31 09:33:53;;;;;;;3.63;1.10;;;24.30;70.50;;;;;;6136672;28;84611;-64
2022/07/31 09:37:29;;;;;;;3.55;1.85;;;24.40;69.80;;;;;;6138934;28;81768;-64
2022/07/31 09:40:48;;;;;;;1.30;1.13;;;24.30;69.90;;;;;;6144998;28;80157;-64
2022/07/31 09:44:08;;;;;;;1.67;1.02;;;24.40;69.90;;;;;;6142644;28;81540;-64
2022/07/31 09:47:09;;;;;;;1.17;1.08;;;24.40;69.80;;;;;;6124204;28;82492;-65
2022/07/31 09:50:09;;;;;;;1.00;0.95;;;24.40;70.00;;;;;;6136808;28;83251;-65
2022/07/31 09:53:10;;;;;;;1.83;1.00;;;24.30;69.80;;;;;;6156130;28;80737;-65
2022/07/31 09:56:14;;;;;;;1.83;1.15;;;24.30;70.00;;;;;;6156500;28;80630;-65
2022/07/31 09:59:15;;;;;;;0.90;0.80;;;24.10;70.20;;;;;;6140054;28;80258;-65
2022/07/31 10:02:16;;;;;;;1.27;0.90;;;24.10;70.00;;;;;;6155213;28;83173;-64
2022/07/31 10:05:19;;;;;;;1.63;1.00;;;24.10;70.30;;;;;;6156187;28;82303;-65
2022/07/31 10:08:20;;;;;;;1.67;1.20;;;24.10;70.10;;;;;;6145677;28;82555;-66
2022/07/31 10:11:50;;;;;;;2.63;1.27;;;24.20;70.00;;;;;;6136314;28;80610;-68
2022/07/31 10:14:53;;;;;;;1.90;1.20;;;24.10;69.90;;;;;;6135991;28;82629;-62
2022/07/31 10:17:55;;;;;;;1.83;0.98;;;24.00;69.80;;;;;;6145437;28;83049;-75
2022/07/31 10:21:14;;;;;;;5.05;1.20;;;23.90;69.60;;;;;;6151867;28;80118;-71
2022/07/31 10:24:41;;;;;;;1.85;1.40;;;23.50;71.20;;;;;;6137319;28;81453;-66
2022/07/31 10:27:41;;;;;;;2.20;1.27;;;23.10;72.90;;;;;;6158642;28;83156;-65
2022/07/31 10:30:46;;;;;;;2.28;1.58;;;23.40;72.30;;;;;;6157649;28;80947;-65
2022/07/31 10:33:46;;;;;;;2.22;1.17;;;23.40;72.70;;;;;;6141915;28;82092;-66
2022/07/31 10:37:05;;;;;;;2.78;1.55;;;23.50;72.10;;;;;;6146544;28;84574;-65
2022/07/31 10:40:35;;;;;;;2.35;1.55;;;23.60;72.10;;;;;;6146079;28;83872;-69
2022/07/31 10:43:37;;;;;;;2.78;1.85;;;23.50;72.10;;;;;;6156255;28;80410;-65
2022/07/31 10:46:42;;;;;;;4.43;1.98;;;23.40;72.90;;;;;;6134195;28;83524;-66
2022/07/31 10:50:12;;;;;;;3.60;1.48;;;23.40;73.00;;;;;;6148913;28;81155;-66
2022/07/31 10:53:28;;;;;;;2.47;1.70;;;23.20;73.60;;;;;;6146410;28;81258;-66
2022/07/31 10:56:44;;;;;;;5.60;2.37;;;23.50;73.00;;;;;;6144553;28;82355;-66
2022/07/31 11:00:16;;;;;;;7.18;2.30;;;23.70;73.80;;;;;;6119303;28;80340;-66
2022/07/31 11:03:35;;;;;;;6.32;2.10;;;23.80;73.20;;;;;;6150770;28;80331;-68
2022/07/31 11:07:04;;;;;;;4.50;2.20;;;23.70;74.40;;;;;;6146896;28;87393;-66
2022/07/31 11:10:35;;;;;;;6.07;3.53;;;23.60;73.60;;;;;;6146018;28;83525;-66
2022/07/31 11:13:56;;;;;;;4.45;2.63;;;23.60;74.00;;;;;;6152208;28;80659;-66
2022/07/31 11:17:20;;;;;;;5.93;3.17;;;23.80;73.30;;;;;;6154331;28;80525;-67
2022/07/31 11:20:29;;;;;;;3.50;2.08;;;23.70;72.80;;;;;;6140061;28;82019;-66
2022/07/31 11:23:30;;;;;;;3.88;2.08;;;23.70;73.20;;;;;;6146639;28;80483;-66
2022/07/31 11:26:30;;;;;;;1.67;1.40;;;23.80;73.00;;;;;;6145095;28;80860;-65
2022/07/31 11:29:31;;;;;;;4.38;1.60;;;23.90;73.20;;;;;;6127608;28;80336;-66
2022/07/31 11:32:32;;;;;;;2.35;1.45;;;23.80;72.50;;;;;;6140802;28;80598;-66
2022/07/31 11:35:32;;;;;;;7.28;1.75;;;23.80;72.70;;;;;;6151344;28;81394;-66
2022/07/31 11:38:33;;;;;;;1.30;1.20;;;23.70;73.40;;;;;;6157772;28;81114;-65
2022/07/31 11:41:33;;;;;;;1.30;1.20;;;23.80;73.00;;;;;;6157965;28;80447;-66
2022/07/31 11:44:34;;;;;;;4.78;2.58;;;23.90;72.70;;;;;;6139758;28;81537;-65
2022/07/31 11:47:34;;;;;;;4.05;2.05;;;23.90;72.20;;;;;;6147545;28;82317;-65
2022/07/31 11:50:35;;;;;;;4.55;2.20;;;24.00;72.00;;;;;;6149988;28;80334;-65
2022/07/31 11:53:35;;;;;;;2.53;1.77;;;24.00;72.10;;;;;;6152117;28;80411;-66
2022/07/31 11:56:38;;;;;;;1.50;1.40;;;24.10;71.60;;;;;;6148095;28;81771;-66
2022/07/31 11:59:38;;;;;;;1.90;1.33;;;23.90;71.90;;;;;;6142237;28;80686;-65
2022/07/31 12:02:39;;;;;;;2.55;1.25;;;23.80;72.30;;;;;;6151688;28;81028;-66
2022/07/31 12:05:39;;;;;;;2.42;1.23;;;23.60;72.70;;;;;;6146640;28;82175;-65
2022/07/31 12:08:40;;;;;;;3.30;1.00;;;23.70;72.20;;;;;;6156555;28;80859;-64
2022/07/31 12:11:40;;;;;;;1.33;1.23;;;23.90;72.10;;;;;;6155174;28;80583;-64
2022/07/31 12:14:41;;;;;;;3.40;2.30;;;23.40;73.10;;;;;;6152043;28;81151;-66
2022/07/31 12:17:41;;;;;;;2.30;1.90;;;23.50;72.90;;;;;;6153391;28;80874;-66
2022/07/31 12:20:42;;;;;;;2.13;1.63;;;23.50;73.10;;;;;;6150612;28;81875;-65
2022/07/31 12:23:42;;;;;;;3.10;1.50;;;23.50;73.20;;;;;;6137774;28;80369;-65
2022/07/31 12:26:43;;;;;;;2.50;1.17;;;23.50;72.90;;;;;;6156860;28;80404;-66
2022/07/31 12:29:43;;;;;;;6.30;1.17;;;23.60;72.60;;;;;;6138913;28;80446;-65
2022/07/31 12:32:44;;;;;;;4.72;1.42;;;23.60;72.90;;;;;;6145183;28;81721;-66
2022/07/31 12:35:45;;;;;;;1.65;1.23;;;23.70;73.10;;;;;;6141425;28;81808;-66
2022/07/31 12:38:46;;;;;;;1.67;1.35;;;23.60;73.10;;;;;;6139931;28;82289;-67
2022/07/31 12:41:46;;;;;;;0.80;0.80;;;23.70;73.10;;;;;;6140814;28;80372;-68
2022/07/31 12:44:47;;;;;;;7.65;4.03;;;23.70;72.80;;;;;;6145405;28;80874;-68
2022/07/31 12:47:47;;;;;;;5.63;2.72;;;23.30;74.00;;;;;;6142712;28;80077;-68
2022/07/31 12:50:48;;;;;;;1.90;1.50;;;23.30;74.90;;;;;;6139151;28;81008;-68
2022/07/31 12:53:48;;;;;;;1.20;1.08;;;23.40;74.70;;;;;;6138952;28;80809;-67
2022/07/31 12:56:49;;;;;;;1.85;1.02;;;23.30;74.20;;;;;;6139652;28;80411;-67
2022/07/31 12:59:49;;;;;;;1.67;0.95;;;23.50;73.80;;;;;;6143327;28;80897;-67
2022/07/31 13:02:50;;;;;;;1.00;0.90;;;23.60;73.40;;;;;;6147477;28;81750;-69
2022/07/31 13:05:51;;;;;;;2.10;0.93;;;23.50;73.70;;;;;;6147254;28;87557;-67
2022/07/31 13:08:51;;;;;;;4.60;2.50;;;23.20;75.10;;;;;;6142277;28;81372;-68
2022/07/31 13:11:52;;;;;;;2.42;1.90;;;23.30;75.00;;;;;;6139976;28;80678;-67
2022/07/31 13:14:52;;;;;;;1.83;1.25;;;23.40;74.80;;;;;;6142646;28;81455;-67
2022/07/31 13:17:53;;;;;;;2.50;1.38;;;23.40;74.60;;;;;;6146005;28;80687;-67
2022/07/31 13:20:53;;;;;;;2.80;0.95;;;23.10;75.40;;;;;;6143180;28;81119;-68
2022/07/31 13:23:54;;;;;;;0.77;0.77;;;23.10;76.00;;;;;;6142504;28;80361;-67
2022/07/31 13:26:57;;;;;;;2.30;1.20;;;23.10;75.60;;;;;;6154040;28;80573;-68
2022/07/31 13:29:58;;;;;;;1.50;0.80;;;23.20;76.10;;;;;;6148032;28;81919;-66
2022/07/31 13:32:58;;;;;;;0.85;0.80;;;23.30;75.10;;;;;;6155598;28;81524;-66
2022/07/31 13:35:58;;;;;;;1.20;1.10;;;23.20;75.80;;;;;;6159724;28;80644;-67
2022/07/31 13:38:59;;;;;;;2.15;0.75;;;23.10;76.10;;;;;;6160234;28;82037;-65
2022/07/31 13:41:59;;;;;;;6.22;3.83;;;23.10;76.00;;;;;;6159694;28;81470;-64
2022/07/31 13:45:01;;;;;;;2.88;1.98;;;23.10;75.50;;;;;;6157719;28;82277;-66
2022/07/31 13:48:01;;;;;;;2.13;1.65;;;23.30;75.20;;;;;;6155236;28;80556;-72
2022/07/31 13:51:02;;;;;;;1.02;0.95;;;23.30;75.20;;;;;;6155440;28;81203;-66
2022/07/31 13:54:03;;;;;;;0.85;0.77;;;23.10;75.60;;;;;;6149162;28;80652;-65
2022/07/31 13:57:04;;;;;;;0.93;0.80;;;22.80;77.20;;;;;;6154220;28;80267;-64
2022/07/31 14:00:05;;;;;;;1.63;0.60;;;22.70;77.70;;;;;;6148597;28;80513;-65
2022/07/31 14:03:05;;;;;;;0.63;0.60;;;22.40;78.60;;;;;;6151628;28;80837;-65
2022/07/31 14:06:06;;;;;;;1.40;1.17;;;22.50;78.70;;;;;;6149204;28;81611;-65
2022/07/31 14:09:07;;;;;;;1.10;0.80;;;22.70;78.00;;;;;;6146396;28;80199;-66
2022/07/31 14:12:07;;;;;;;1.20;1.10;;;22.90;77.50;;;;;;6150458;28;80534;-65
2022/07/31 14:15:08;;;;;;;1.40;0.70;;;23.10;76.90;;;;;;6155430;28;81062;-65
2022/07/31 14:18:08;;;;;;;0.77;0.77;;;23.10;76.30;;;;;;6147540;28;80497;-64
2022/07/31 14:21:09;;;;;;;2.80;2.00;;;23.30;76.00;;;;;;6155373;28;80541;-73
2022/07/31 14:24:09;;;;;;;3.47;2.40;;;23.50;75.10;;;;;;6159337;28;81433;-65
2022/07/31 14:27:10;;;;;;;4.15;2.10;;;23.70;74.90;;;;;;6146515;28;80427;-69
2022/07/31 14:30:10;;;;;;;3.47;1.90;;;23.80;74.30;;;;;;6150603;28;80408;-65
2022/07/31 14:33:11;;;;;;;1.83;1.38;;;23.80;74.00;;;;;;6149618;28;80734;-66
2022/07/31 14:36:12;;;;;;;2.80;1.33;;;23.90;73.80;;;;;;6153499;28;80804;-66
2022/07/31 14:39:12;;;;;;;2.03;1.50;;;24.00;73.60;;;;;;6152882;28;80506;-66
2022/07/31 14:42:13;;;;;;;2.10;1.40;;;24.00;73.20;;;;;;6159281;28;80833;-67
2022/07/31 14:45:13;;;;;;;1.80;1.40;;;24.00;73.40;;;;;;6158359;28;81106;-66
2022/07/31 14:48:14;;;;;;;1.55;1.25;;;24.00;73.30;;;;;;6140763;28;82611;-68
2022/07/31 14:51:14;;;;;;;1.73;1.38;;;24.10;73.20;;;;;;6156092;28;80419;-67
2022/07/31 14:54:15;;;;;;;1.92;1.50;;;24.10;72.90;;;;;;6150073;28;80258;-67
2022/07/31 14:57:15;;;;;;;2.88;1.30;;;24.10;72.80;;;;;;6147727;28;80656;-67
2022/07/31 15:00:16;;;;;;;2.95;1.60;;;24.10;73.00;;;;;;6158932;28;81249;-66
2022/07/31 15:03:16;;;;;;;1.67;1.30;;;24.20;72.80;;;;;;6134725;28;80708;-66
2022/07/31 15:06:17;;;;;;;2.85;1.50;;;24.30;72.90;;;;;;6145126;28;80555;-66
2022/07/31 15:09:18;;;;;;;2.10;1.90;;;24.30;72.50;;;;;;6146574;28;81304;-66
2022/07/31 15:12:19;;;;;;;3.97;2.70;;;24.30;72.50;;;;;;6152366;28;80475;-67
2022/07/31 15:15:19;;;;;;;10.18;2.85;;;24.30;72.50;;;;;;6143037;28;81261;-69
2022/07/31 15:18:20;;;;;;;3.00;2.20;;;24.40;72.20;;;;;;6143200;28;80662;-65
2022/07/31 15:21:20;;;;;;;11.02;2.67;;;24.40;72.00;;;;;;6119640;28;80530;-68
2022/07/31 15:24:21;;;;;;;3.08;2.10;;;24.40;72.50;;;;;;6121720;28;80815;-70
2022/07/31 15:27:22;;;;;;;6.32;2.40;;;24.40;72.30;;;;;;6131766;28;80275;-67
2022/07/31 15:30:23;;;;;;;7.60;2.15;;;24.50;72.20;;;;;;6148792;28;80685;-67
2022/07/31 15:33:23;;;;;;;4.75;2.25;;;24.50;72.30;;;;;;6156669;28;80867;-68
2022/07/31 15:36:24;;;;;;;2.83;2.17;;;24.40;72.30;;;;;;6154915;28;80482;-66
2022/07/31 15:39:24;;;;;;;3.25;2.60;;;24.30;72.60;;;;;;6150895;28;80922;-67
2022/07/31 15:42:25;;;;;;;3.08;2.70;;;24.30;72.40;;;;;;6148319;28;81457;-67
2022/07/31 15:45:25;;;;;;;5.38;2.95;;;24.30;72.40;;;;;;6150165;28;80168;-66
2022/07/31 15:48:26;;;;;;;4.45;2.83;;;24.30;72.50;;;;;;6159158;28;80498;-66
2022/07/31 15:51:26;;;;;;;4.32;2.72;;;24.30;72.70;;;;;;6146916;28;80728;-69
2022/07/31 15:54:27;;;;;;;6.00;3.00;;;24.30;72.80;;;;;;6146998;28;80554;-67